Hovedside
METAR-TAF:

METAR-TAF

Lufthavner :

Port Said, Egypt

breddegrad: 31-16N, lengdegrad: 032-18E, høyde over havet: 6 m

Gjeldene værobservasjon

Denne rapporten ble laget for 1 time og 53 minutter siden, klokken 20:00 UTC
Vind 10 kt fra Nord
Temperatur 26°C
Luftfuktighet 79%
Trykk 1006 hPa
Sikt 10 km eller mer
ingen skyer under 1500 m og ingen bygeskyer

METAR: HEPS 042000Z 35010KT CAVOK 26/22 Q1006 NOSIG

Tid: 23:53 (21:53 UTC)

Varsel

Denne rapporten ble laget for 4 timer og 53 minutter siden, klokken 17:00 UTC
Varsel gyldig fra 04. klokken 18 UTC til 05. klokken 24 UTC
Vind 10 kt fra Nord
Sikt 10 km eller mer
ingen skyer under 1500 m og ingen bygeskyer

TAF: HEPS 041700Z 0418/0524 35010KT CAVOK

Værobservasjoner og værvarsel for over 4000 flyplasser (METAR- og TAF-rapporter).

Tilgjengelige stasjoner er representert av de røde og gule prikkene på kartet.

Hold musepekeren over prikken for å se navnet på stasjonen.

Klikk så for å se værobservasjoner og -varsler.

For å forandre kartet kan du klikke på den grønne knappen med svart kryss for å zoome inn, på den grønne knappen med strek for å zoome ut, eller på de grønne pilene for å se tilstøtende kart.


METAR-TAF: